Time;durP1;ratioP1;P1;durP2;ratioP2;P2;SDS_P1;SDS_P2;PMS_P1;PMS_P2;Temp;Humidity;BMP_temperature;BMP_pressure;BME280_temperature;BME280_humidity;BME280_pressure;Samples;Min_cycle;Max_cycle;Signal;HPM_P1;HPM_P2
2024/03/28 00:02:22;;;;;;;0.30;0.30;;;;;;;;;;5062223;28;20218;-76
2024/03/28 00:04:48;;;;;;;0.20;0.20;;;;;;;;;;5060225;28;20223;-76
2024/03/28 00:07:13;;;;;;;0.40;0.40;;;;;;;;;;5063911;28;20661;-76
2024/03/28 00:09:39;;;;;;;0.20;0.20;;;;;;;;;;5044601;28;20226;-76
2024/03/28 00:12:06;;;;;;;0.30;0.30;;;;;;;;;;5063253;28;20219;-77
2024/03/28 00:14:32;;;;;;;0.33;0.33;;;;;;;;;;5045259;28;20632;-76
2024/03/28 00:16:59;;;;;;;2.30;0.57;;;;;;;;;;5047951;28;20224;-77
2024/03/28 00:19:24;;;;;;;0.20;0.20;;;;;;;;;;5060318;28;20218;-76
2024/03/28 00:21:50;;;;;;;0.40;0.40;;;;;;;;;;5059622;28;20230;-77
2024/03/28 00:24:16;;;;;;;0.20;0.20;;;;;;;;;;5045067;28;20218;-76
2024/03/28 00:26:41;;;;;;;0.30;0.30;;;;;;;;;;5055142;28;20242;-76
2024/03/28 00:29:07;;;;;;;0.20;0.20;;;;;;;;;;5049423;28;20215;-76
2024/03/28 00:31:32;;;;;;;0.30;0.30;;;;;;;;;;5044873;28;20246;-76
2024/03/28 00:33:58;;;;;;;0.30;0.30;;;;;;;;;;5059019;28;20250;-77
2024/03/28 00:36:24;;;;;;;0.20;0.20;;;;;;;;;;5055649;28;20238;-77
2024/03/28 00:38:49;;;;;;;0.30;0.30;;;;;;;;;;5063758;28;20214;-76
2024/03/28 00:41:15;;;;;;;0.40;0.40;;;;;;;;;;5060043;28;20219;-76
2024/03/28 00:43:41;;;;;;;0.20;0.20;;;;;;;;;;5066307;28;20226;-76
2024/03/28 00:46:07;;;;;;;0.30;0.30;;;;;;;;;;5062568;28;20297;-77
2024/03/28 00:48:32;;;;;;;0.30;0.30;;;;;;;;;;5058797;28;20987;-76
2024/03/28 00:50:59;;;;;;;0.20;0.20;;;;;;;;;;5049702;28;20230;-76
2024/03/28 00:53:26;;;;;;;0.20;0.20;;;;;;;;;;5051952;28;20218;-77
2024/03/28 00:55:52;;;;;;;0.20;0.20;;;;;;;;;;5048125;28;20627;-77
2024/03/28 00:58:17;;;;;;;0.20;0.20;;;;;;;;;;5071107;28;20670;-76
2024/03/28 01:00:46;;;;;;;0.40;0.40;;;;;;;;;;5065080;28;20235;-76
2024/03/28 01:03:12;;;;;;;0.30;0.30;;;;;;;;;;5053967;28;20215;-77
2024/03/28 01:05:39;;;;;;;0.30;0.30;;;;;;;;;;5071997;28;20700;-77
2024/03/28 01:08:04;;;;;;;0.30;0.30;;;;;;;;;;5053798;28;20280;-76
2024/03/28 01:10:31;;;;;;;0.30;0.30;;;;;;;;;;5064235;28;20231;-77
2024/03/28 01:12:56;;;;;;;0.20;0.20;;;;;;;;;;5058041;28;20234;-76
2024/03/28 01:15:22;;;;;;;0.20;0.20;;;;;;;;;;5041520;28;20230;-76
2024/03/28 01:17:47;;;;;;;0.30;0.30;;;;;;;;;;5058466;28;20219;-76
2024/03/28 01:20:13;;;;;;;0.27;0.27;;;;;;;;;;5056523;28;20794;-76
2024/03/28 01:22:39;;;;;;;0.40;0.40;;;;;;;;;;5042400;28;20648;-76
2024/03/28 01:25:06;;;;;;;0.20;0.20;;;;;;;;;;5058342;28;20274;-76
2024/03/28 01:27:34;;;;;;;0.30;0.30;;;;;;;;;;5049759;28;20727;-76
2024/03/28 01:30:00;;;;;;;0.23;0.23;;;;;;;;;;5041857;28;20256;-76
2024/03/28 01:32:25;;;;;;;0.30;0.30;;;;;;;;;;5065913;28;20348;-79
2024/03/28 01:34:51;;;;;;;0.20;0.20;;;;;;;;;;5066422;28;20230;-76
2024/03/28 01:37:16;;;;;;;0.23;0.23;;;;;;;;;;5062771;28;20594;-79
2024/03/28 01:39:42;;;;;;;1.27;0.87;;;;;;;;;;5056383;28;20223;-76
2024/03/28 01:42:08;;;;;;;1.07;0.43;;;;;;;;;;5067929;28;20231;-75
2024/03/28 01:44:36;;;;;;;0.80;0.80;;;;;;;;;;5049227;28;20226;-76
2024/03/28 01:47:03;;;;;;;0.30;0.30;;;;;;;;;;5067049;28;20219;-76
2024/03/28 01:49:30;;;;;;;0.23;0.23;;;;;;;;;;5056965;28;20227;-75
2024/03/28 01:51:56;;;;;;;0.40;0.40;;;;;;;;;;5050035;28;20233;-76
2024/03/28 01:54:22;;;;;;;0.70;0.70;;;;;;;;;;5053161;28;20779;-76
2024/03/28 01:56:48;;;;;;;0.40;0.40;;;;;;;;;;5066003;28;20224;-75
2024/03/28 01:59:15;;;;;;;0.40;0.40;;;;;;;;;;5057065;28;20603;-75
2024/03/28 02:01:45;;;;;;;0.40;0.40;;;;;;;;;;5058053;28;20223;-75
2024/03/28 02:04:11;;;;;;;0.40;0.40;;;;;;;;;;5048623;28;20219;-75
2024/03/28 02:06:37;;;;;;;0.37;0.37;;;;;;;;;;5042050;28;20301;-75
2024/03/28 02:09:07;;;;;;;0.40;0.40;;;;;;;;;;5048783;28;20234;-75
2024/03/28 02:11:33;;;;;;;0.20;0.20;;;;;;;;;;5048156;28;20390;-74
2024/03/28 02:14:00;;;;;;;0.30;0.30;;;;;;;;;;5058776;28;20218;-75
2024/03/28 02:16:26;;;;;;;0.20;0.20;;;;;;;;;;5057414;28;20219;-75
2024/03/28 02:18:57;;;;;;;0.30;0.30;;;;;;;;;;5040400;28;20310;-75
2024/03/28 02:21:24;;;;;;;0.37;0.37;;;;;;;;;;5056832;28;20234;-75
2024/03/28 02:23:51;;;;;;;0.30;0.30;;;;;;;;;;5042243;28;20222;-75
2024/03/28 02:26:21;;;;;;;0.20;0.20;;;;;;;;;;5041320;28;20739;-76
2024/03/28 02:28:46;;;;;;;0.20;0.20;;;;;;;;;;5056658;28;20234;-75
2024/03/28 02:31:13;;;;;;;0.30;0.30;;;;;;;;;;5053122;28;20257;-76
2024/03/28 02:33:40;;;;;;;0.30;0.30;;;;;;;;;;5057486;28;20234;-75
2024/03/28 02:36:05;;;;;;;0.53;0.50;;;;;;;;;;5062965;28;20226;-75
2024/03/28 02:38:31;;;;;;;0.40;0.40;;;;;;;;;;5040411;28;20224;-76
2024/03/28 02:40:57;;;;;;;0.20;0.20;;;;;;;;;;5058545;28;20225;-76
2024/03/28 02:43:23;;;;;;;0.30;0.30;;;;;;;;;;5049765;28;20219;-75
2024/03/28 02:45:49;;;;;;;0.30;0.30;;;;;;;;;;5074801;28;20847;-75
2024/03/28 02:48:15;;;;;;;0.63;0.60;;;;;;;;;;5048954;28;20222;-76
2024/03/28 02:50:41;;;;;;;0.20;0.20;;;;;;;;;;5040052;28;20234;-75
2024/03/28 02:53:06;;;;;;;0.20;0.20;;;;;;;;;;5049039;28;20221;-75
2024/03/28 02:55:32;;;;;;;0.20;0.20;;;;;;;;;;5055014;28;20276;-76
2024/03/28 02:57:57;;;;;;;0.30;0.30;;;;;;;;;;5057187;28;20220;-76
2024/03/28 03:00:24;;;;;;;0.30;0.30;;;;;;;;;;5042287;28;20276;-76
2024/03/28 03:02:49;;;;;;;0.30;0.30;;;;;;;;;;5056776;28;20230;-75
2024/03/28 03:05:15;;;;;;;0.40;0.40;;;;;;;;;;5044044;28;20229;-76
2024/03/28 03:07:40;;;;;;;0.40;0.40;;;;;;;;;;5043862;28;20225;-76
2024/03/28 03:10:06;;;;;;;0.20;0.20;;;;;;;;;;5045119;28;20583;-76
2024/03/28 03:12:32;;;;;;;0.37;0.37;;;;;;;;;;5058821;28;20588;-75
2024/03/28 03:14:58;;;;;;;0.57;0.57;;;;;;;;;;5061506;28;20227;-75
2024/03/28 03:17:25;;;;;;;0.20;0.20;;;;;;;;;;5062981;28;20786;-76
2024/03/28 03:19:55;;;;;;;0.47;0.47;;;;;;;;;;5045451;28;20234;-78
2024/03/28 03:22:22;;;;;;;0.37;0.37;;;;;;;;;;5044445;28;20703;-76
2024/03/28 03:24:48;;;;;;;0.20;0.20;;;;;;;;;;5059663;28;20230;-76
2024/03/28 03:27:17;;;;;;;0.60;0.60;;;;;;;;;;5059130;28;20219;-76
2024/03/28 03:35:11;;;;;;;0.30;0.30;;;;;;;;;;5054395;28;20605;-76
2024/03/28 03:37:36;;;;;;;0.40;0.40;;;;;;;;;;5058724;28;20227;-75
2024/03/28 03:40:20;;;;;;;1.90;0.97;;;;;;;;;;5056700;28;20231;-76
2024/03/28 03:42:46;;;;;;;1.83;0.63;;;;;;;;;;5044515;28;20230;-77
2024/03/28 03:45:11;;;;;;;1.30;0.63;;;;;;;;;;5059652;28;20219;-75
2024/03/28 03:47:37;;;;;;;0.27;0.23;;;;;;;;;;5044874;28;20696;-76
2024/03/28 03:50:03;;;;;;;0.40;0.40;;;;;;;;;;5058690;28;20521;-76
2024/03/28 03:52:29;;;;;;;0.30;0.30;;;;;;;;;;5060158;28;20231;-77
2024/03/28 03:54:54;;;;;;;0.30;0.30;;;;;;;;;;5044631;28;20242;-76
2024/03/28 03:57:20;;;;;;;0.40;0.40;;;;;;;;;;5058155;28;20689;-75
2024/03/28 03:59:46;;;;;;;0.20;0.20;;;;;;;;;;5060362;28;20223;-75
2024/03/28 04:02:11;;;;;;;0.53;0.53;;;;;;;;;;5058475;28;20223;-75
2024/03/28 04:04:36;;;;;;;0.40;0.40;;;;;;;;;;5044851;28;20704;-75
2024/03/28 04:07:02;;;;;;;0.40;0.40;;;;;;;;;;5058922;28;20234;-76
2024/03/28 04:09:27;;;;;;;1.03;0.77;;;;;;;;;;5060940;28;20310;-77
2024/03/28 04:11:54;;;;;;;0.53;0.53;;;;;;;;;;5045049;28;20223;-76
2024/03/28 04:14:20;;;;;;;0.30;0.30;;;;;;;;;;5060737;28;20218;-76
2024/03/28 04:16:45;;;;;;;0.40;0.40;;;;;;;;;;5058795;28;20716;-75
2024/03/28 04:19:11;;;;;;;0.30;0.30;;;;;;;;;;5074563;28;20686;-76
2024/03/28 04:21:37;;;;;;;0.37;0.37;;;;;;;;;;5058416;28;20224;-75
2024/03/28 04:24:03;;;;;;;0.50;0.50;;;;;;;;;;5075082;28;20222;-75
2024/03/28 04:26:30;;;;;;;0.77;0.77;;;;;;;;;;5045109;28;20249;-76
2024/03/28 04:28:55;;;;;;;0.40;0.40;;;;;;;;;;5060327;28;20219;-75
2024/03/28 04:31:21;;;;;;;0.30;0.30;;;;;;;;;;5048216;28;20218;-75
2024/03/28 04:33:47;;;;;;;0.30;0.30;;;;;;;;;;5044572;28;20215;-75
2024/03/28 04:36:14;;;;;;;0.80;0.80;;;;;;;;;;5041289;28;20567;-75
2024/03/28 04:38:42;;;;;;;0.50;0.50;;;;;;;;;;5047865;28;20234;-75
2024/03/28 04:41:09;;;;;;;0.60;0.60;;;;;;;;;;5046051;28;20705;-75
2024/03/28 04:43:35;;;;;;;0.73;0.73;;;;;;;;;;5064782;28;20226;-75
2024/03/28 04:46:00;;;;;;;0.33;0.33;;;;;;;;;;5059628;28;20223;-76
2024/03/28 04:48:26;;;;;;;0.30;0.30;;;;;;;;;;5041717;28;20763;-76
2024/03/28 04:50:51;;;;;;;0.43;0.43;;;;;;;;;;5041766;28;20258;-75
2024/03/28 04:53:17;;;;;;;0.40;0.40;;;;;;;;;;5043592;28;20238;-75
2024/03/28 04:55:42;;;;;;;0.40;0.40;;;;;;;;;;5059413;28;20302;-75
2024/03/28 04:58:08;;;;;;;0.93;0.50;;;;;;;;;;5042976;28;20215;-76
2024/03/28 05:00:33;;;;;;;0.40;0.40;;;;;;;;;;5056379;28;20223;-75
2024/03/28 05:03:00;;;;;;;0.50;0.50;;;;;;;;;;5049900;28;20219;-76
2024/03/28 05:05:25;;;;;;;0.40;0.40;;;;;;;;;;5057470;28;20696;-76
2024/03/28 05:07:51;;;;;;;0.50;0.50;;;;;;;;;;5058620;28;20235;-76
2024/03/28 05:10:17;;;;;;;0.80;0.80;;;;;;;;;;5042822;28;20218;-76
2024/03/28 05:12:43;;;;;;;0.63;0.63;;;;;;;;;;5041958;28;20270;-76
2024/03/28 05:15:10;;;;;;;0.43;0.43;;;;;;;;;;5046699;28;20749;-76
2024/03/28 05:17:35;;;;;;;0.40;0.40;;;;;;;;;;5042791;28;20679;-75
2024/03/28 05:20:06;;;;;;;0.50;0.50;;;;;;;;;;5057617;28;20265;-76
2024/03/28 05:22:32;;;;;;;0.80;0.80;;;;;;;;;;5049034;28;20215;-76
2024/03/28 05:24:57;;;;;;;2.00;1.03;;;;;;;;;;5041966;28;20693;-75
2024/03/28 05:27:23;;;;;;;0.87;0.87;;;;;;;;;;5043130;28;20227;-76
2024/03/28 05:29:48;;;;;;;0.30;0.30;;;;;;;;;;5058680;28;20223;-75
2024/03/28 05:32:14;;;;;;;0.60;0.60;;;;;;;;;;5041787;28;20713;-75
2024/03/28 05:34:44;;;;;;;0.47;0.47;;;;;;;;;;5056914;28;20326;-76
2024/03/28 05:37:09;;;;;;;0.83;0.83;;;;;;;;;;5048376;28;20220;-75
2024/03/28 05:39:35;;;;;;;0.67;0.67;;;;;;;;;;5042310;28;20223;-75
2024/03/28 05:42:01;;;;;;;0.63;0.63;;;;;;;;;;5042398;28;20310;-75
2024/03/28 05:44:27;;;;;;;0.30;0.30;;;;;;;;;;5052633;28;20219;-75
2024/03/28 05:46:53;;;;;;;0.30;0.30;;;;;;;;;;5042619;28;20718;-76
2024/03/28 05:49:19;;;;;;;1.03;0.87;;;;;;;;;;5048114;28;20612;-76
2024/03/28 05:51:44;;;;;;;0.77;0.77;;;;;;;;;;5043223;28;20223;-75
2024/03/28 05:54:10;;;;;;;0.40;0.40;;;;;;;;;;5042529;28;20735;-75
2024/03/28 05:56:35;;;;;;;0.70;0.70;;;;;;;;;;5056489;28;20262;-76
2024/03/28 05:59:01;;;;;;;0.50;0.50;;;;;;;;;;5057085;28;20320;-76
2024/03/28 06:01:27;;;;;;;0.57;0.57;;;;;;;;;;5057103;28;20273;-76
2024/03/28 06:03:53;;;;;;;0.53;0.47;;;;;;;;;;5042869;28;20226;-75
2024/03/28 06:06:18;;;;;;;0.50;0.50;;;;;;;;;;5057824;28;20274;-75
2024/03/28 06:08:44;;;;;;;0.73;0.73;;;;;;;;;;5042768;28;20222;-75
2024/03/28 06:11:09;;;;;;;0.57;0.57;;;;;;;;;;5061833;28;20227;-75
2024/03/28 06:13:35;;;;;;;1.13;1.13;;;;;;;;;;5066503;28;20775;-76
2024/03/28 06:16:01;;;;;;;0.70;0.70;;;;;;;;;;5041675;28;20225;-75
2024/03/28 06:18:29;;;;;;;0.60;0.60;;;;;;;;;;5049208;28;20277;-76
2024/03/28 06:21:05;;;;;;;0.43;0.43;;;;;;;;;;5049439;28;20735;-76
2024/03/28 06:23:32;;;;;;;0.43;0.43;;;;;;;;;;5058116;28;20219;-75
2024/03/28 06:26:04;;;;;;;0.60;0.60;;;;;;;;;;5050143;28;20217;-75
2024/03/28 06:28:31;;;;;;;0.73;0.73;;;;;;;;;;5042743;28;20225;-76
2024/03/28 06:30:59;;;;;;;0.87;0.80;;;;;;;;;;5041902;28;20595;-75
2024/03/28 06:33:25;;;;;;;0.67;0.63;;;;;;;;;;5041726;28;20234;-75
2024/03/28 06:35:51;;;;;;;0.27;0.27;;;;;;;;;;5056737;28;20234;-75
2024/03/28 06:38:17;;;;;;;0.70;0.70;;;;;;;;;;5041352;28;20223;-75
2024/03/28 06:40:44;;;;;;;0.50;0.50;;;;;;;;;;5048617;28;20234;-75
2024/03/28 06:43:10;;;;;;;1.03;0.63;;;;;;;;;;5055475;28;20231;-75
2024/03/28 06:45:36;;;;;;;0.30;0.30;;;;;;;;;;5057544;28;20747;-76
2024/03/28 06:48:02;;;;;;;0.37;0.37;;;;;;;;;;5048263;28;20222;-75
2024/03/28 06:50:27;;;;;;;0.40;0.40;;;;;;;;;;5040180;28;20226;-75
2024/03/28 06:52:53;;;;;;;0.57;0.57;;;;;;;;;;5065100;28;20318;-75
2024/03/28 06:55:19;;;;;;;0.60;0.60;;;;;;;;;;5049176;28;20344;-75
2024/03/28 06:57:45;;;;;;;0.40;0.40;;;;;;;;;;5040935;28;20334;-75
2024/03/28 07:00:11;;;;;;;0.30;0.30;;;;;;;;;;5042563;28;20234;-75
2024/03/28 07:02:37;;;;;;;0.60;0.60;;;;;;;;;;5041332;28;20696;-75
2024/03/28 07:05:03;;;;;;;0.30;0.30;;;;;;;;;;5058903;28;20218;-75
2024/03/28 07:07:30;;;;;;;0.47;0.47;;;;;;;;;;5055817;28;20211;-75
2024/03/28 07:09:56;;;;;;;0.70;0.70;;;;;;;;;;5040901;28;20238;-75
2024/03/28 07:12:22;;;;;;;0.20;0.20;;;;;;;;;;5055239;28;20222;-75
2024/03/28 07:14:48;;;;;;;0.30;0.30;;;;;;;;;;5065859;28;20215;-75
2024/03/28 07:17:13;;;;;;;0.30;0.30;;;;;;;;;;5041112;28;20233;-75
2024/03/28 07:19:38;;;;;;;1.43;0.63;;;;;;;;;;5040721;28;20215;-75
2024/03/28 07:22:04;;;;;;;0.57;0.57;;;;;;;;;;5040660;28;20215;-75
2024/03/28 07:24:30;;;;;;;0.30;0.30;;;;;;;;;;5040800;28;20734;-76
2024/03/28 07:26:56;;;;;;;1.80;1.30;;;;;;;;;;5041624;28;20226;-75
2024/03/28 07:29:21;;;;;;;0.20;0.20;;;;;;;;;;5040976;28;20224;-75
2024/03/28 07:31:47;;;;;;;0.50;0.50;;;;;;;;;;5041210;28;20224;-75
2024/03/28 07:34:13;;;;;;;0.20;0.20;;;;;;;;;;5039712;28;20227;-75
2024/03/28 07:36:39;;;;;;;0.20;0.20;;;;;;;;;;5047335;28;20295;-75
2024/03/28 07:39:04;;;;;;;0.30;0.30;;;;;;;;;;5039597;28;20234;-75
2024/03/28 07:41:30;;;;;;;0.40;0.40;;;;;;;;;;5041790;28;20704;-77
2024/03/28 07:43:56;;;;;;;0.30;0.30;;;;;;;;;;5057635;28;20249;-76
2024/03/28 07:46:23;;;;;;;0.20;0.20;;;;;;;;;;5040749;28;20223;-75
2024/03/28 07:48:51;;;;;;;1.07;1.00;;;;;;;;;;5074004;28;20226;-76
2024/03/28 07:51:16;;;;;;;0.20;0.20;;;;;;;;;;5049332;28;20222;-75
2024/03/28 07:53:42;;;;;;;0.50;0.50;;;;;;;;;;5044529;28;20223;-76
2024/03/28 07:56:07;;;;;;;0.20;0.20;;;;;;;;;;5044257;28;20648;-76
2024/03/28 07:58:33;;;;;;;2.00;1.23;;;;;;;;;;5044351;28;20215;-76
2024/03/28 08:01:03;;;;;;;0.67;0.67;;;;;;;;;;5052177;28;20234;-76
2024/03/28 08:03:29;;;;;;;0.20;0.20;;;;;;;;;;5044318;28;20231;-76
2024/03/28 08:05:57;;;;;;;0.40;0.40;;;;;;;;;;5060720;28;20227;-76
2024/03/28 08:08:22;;;;;;;0.40;0.40;;;;;;;;;;5045360;28;20269;-77
2024/03/28 08:10:48;;;;;;;0.30;0.30;;;;;;;;;;5046312;28;20282;-75
2024/03/28 08:13:13;;;;;;;0.20;0.20;;;;;;;;;;5058924;28;20727;-76
2024/03/28 08:15:40;;;;;;;1.40;0.50;;;;;;;;;;5043294;28;20233;-76
2024/03/28 08:18:08;;;;;;;1.07;1.07;;;;;;;;;;5060370;28;20789;-76
2024/03/28 08:20:34;;;;;;;0.40;0.40;;;;;;;;;;5044059;28;20231;-76
2024/03/28 08:22:59;;;;;;;0.30;0.30;;;;;;;;;;5059440;28;20226;-76
2024/03/28 08:25:28;;;;;;;0.30;0.30;;;;;;;;;;5043854;28;20226;-77
2024/03/28 08:27:53;;;;;;;0.30;0.30;;;;;;;;;;5051553;28;20479;-77
2024/03/28 08:30:19;;;;;;;0.30;0.30;;;;;;;;;;5043127;28;20226;-77
2024/03/28 08:32:45;;;;;;;0.30;0.30;;;;;;;;;;5059569;28;20226;-76
2024/03/28 08:35:11;;;;;;;0.20;0.20;;;;;;;;;;5043674;28;20711;-77
2024/03/28 08:37:39;;;;;;;0.30;0.30;;;;;;;;;;5059477;28;20591;-75
2024/03/28 08:40:09;;;;;;;0.20;0.20;;;;;;;;;;5050701;28;20245;-75
2024/03/28 08:42:43;;;;;;;0.20;0.20;;;;;;;;;;5058172;28;20230;-75
2024/03/28 08:45:11;;;;;;;0.20;0.20;;;;;;;;;;5056742;28;20238;-75
2024/03/28 08:47:38;;;;;;;0.20;0.20;;;;;;;;;;5074629;28;20226;-76
2024/03/28 08:50:07;;;;;;;0.30;0.30;;;;;;;;;;5042924;28;20224;-76
2024/03/28 08:52:33;;;;;;;0.20;0.20;;;;;;;;;;5059795;28;20227;-77
2024/03/28 08:54:59;;;;;;;0.30;0.30;;;;;;;;;;5068451;28;20794;-75
2024/03/28 08:57:25;;;;;;;0.20;0.20;;;;;;;;;;5065088;28;20293;-75
2024/03/28 08:59:51;;;;;;;0.30;0.30;;;;;;;;;;5043235;28;20222;-75
2024/03/28 09:02:21;;;;;;;0.20;0.20;;;;;;;;;;5057525;28;20278;-77
2024/03/28 09:04:47;;;;;;;0.30;0.30;;;;;;;;;;5058805;28;20281;-77
2024/03/28 09:07:15;;;;;;;0.20;0.20;;;;;;;;;;5051544;28;20222;-77
2024/03/28 09:09:44;;;;;;;0.43;0.43;;;;;;;;;;5060025;28;20234;-77
2024/03/28 09:12:13;;;;;;;0.20;0.20;;;;;;;;;;5052859;28;20218;-76
2024/03/28 09:14:38;;;;;;;0.20;0.20;;;;;;;;;;5066102;28;20634;-75
2024/03/28 09:17:04;;;;;;;0.23;0.23;;;;;;;;;;5060463;28;20230;-77
2024/03/28 09:19:31;;;;;;;0.30;0.30;;;;;;;;;;5058620;28;20251;-77
2024/03/28 09:21:56;;;;;;;0.20;0.20;;;;;;;;;;5045605;28;20280;-77
2024/03/28 09:24:22;;;;;;;0.20;0.20;;;;;;;;;;5058112;28;20708;-78
2024/03/28 09:26:48;;;;;;;0.30;0.30;;;;;;;;;;5051291;28;20753;-77
2024/03/28 09:29:19;;;;;;;0.30;0.30;;;;;;;;;;5043564;28;20222;-77
2024/03/28 09:31:48;;;;;;;0.30;0.30;;;;;;;;;;5043709;28;20635;-77
2024/03/28 09:34:15;;;;;;;0.30;0.30;;;;;;;;;;5060408;28;20226;-77
2024/03/28 09:36:41;;;;;;;0.30;0.30;;;;;;;;;;5057158;28;20227;-77
2024/03/28 09:39:07;;;;;;;0.30;0.30;;;;;;;;;;5054965;28;20724;-78
2024/03/28 09:41:34;;;;;;;0.30;0.30;;;;;;;;;;5042152;28;20593;-77
2024/03/28 09:44:04;;;;;;;0.30;0.30;;;;;;;;;;5050332;28;20223;-77
2024/03/28 09:46:29;;;;;;;0.30;0.30;;;;;;;;;;5050086;28;20704;-78
2024/03/28 09:48:58;;;;;;;0.30;0.30;;;;;;;;;;5061200;28;20234;-78
2024/03/28 09:51:25;;;;;;;0.30;0.30;;;;;;;;;;5061922;28;20562;-78
2024/03/28 09:53:52;;;;;;;0.30;0.30;;;;;;;;;;5067169;28;20554;-77
2024/03/28 09:56:18;;;;;;;0.30;0.30;;;;;;;;;;5057076;28;20222;-76
2024/03/28 09:58:43;;;;;;;0.30;0.30;;;;;;;;;;5040844;28;20314;-76
2024/03/28 10:01:10;;;;;;;0.30;0.30;;;;;;;;;;5058660;28;20613;-77
2024/03/28 10:03:37;;;;;;;0.30;0.30;;;;;;;;;;5058734;28;20293;-77
2024/03/28 10:06:03;;;;;;;0.30;0.30;;;;;;;;;;5043980;28;20226;-77
2024/03/28 10:08:30;;;;;;;0.30;0.30;;;;;;;;;;5043124;28;20218;-77
2024/03/28 10:10:58;;;;;;;0.30;0.30;;;;;;;;;;5062206;28;20757;-77
2024/03/28 10:13:35;;;;;;;0.30;0.30;;;;;;;;;;5066753;28;20219;-77
2024/03/28 10:16:03;;;;;;;0.30;0.30;;;;;;;;;;5062099;28;20234;-78
2024/03/28 10:18:30;;;;;;;0.30;0.30;;;;;;;;;;5067386;28;20313;-78
2024/03/28 10:20:57;;;;;;;0.30;0.30;;;;;;;;;;5059021;28;20705;-77
2024/03/28 10:23:23;;;;;;;0.30;0.30;;;;;;;;;;5066832;28;20231;-78
2024/03/28 10:25:51;;;;;;;0.30;0.30;;;;;;;;;;5066100;28;20726;-77
2024/03/28 10:28:21;;;;;;;0.30;0.30;;;;;;;;;;5051396;28;20642;-77
2024/03/28 10:30:51;;;;;;;0.30;0.30;;;;;;;;;;5043615;28;20231;-78
2024/03/28 10:33:17;;;;;;;0.20;0.20;;;;;;;;;;5066854;28;20233;-77
2024/03/28 10:35:43;;;;;;;0.30;0.30;;;;;;;;;;5058773;28;20273;-77
2024/03/28 10:38:12;;;;;;;0.20;0.20;;;;;;;;;;5060008;28;20709;-79
2024/03/28 10:40:38;;;;;;;0.20;0.20;;;;;;;;;;5057740;28;20227;-77
2024/03/28 10:43:06;;;;;;;0.20;0.20;;;;;;;;;;5047582;28;20231;-78
2024/03/28 10:45:41;;;;;;;0.20;0.20;;;;;;;;;;5063171;28;20218;-78
2024/03/28 10:48:15;;;;;;;0.30;0.30;;;;;;;;;;5053011;28;20221;-77
2024/03/28 10:51:02;;;;;;;0.20;0.20;;;;;;;;;;5044484;28;20235;-77
2024/03/28 10:54:05;;;;;;;0.30;0.30;;;;;;;;;;5071793;28;20219;-78
2024/03/28 10:56:31;;;;;;;0.30;0.30;;;;;;;;;;5053429;28;20246;-77
2024/03/28 10:59:00;;;;;;;0.23;0.23;;;;;;;;;;5060715;28;20711;-77
2024/03/28 11:01:31;;;;;;;0.30;0.30;;;;;;;;;;5050898;28;20284;-77
2024/03/28 11:03:59;;;;;;;0.20;0.20;;;;;;;;;;5058680;28;20264;-76
2024/03/28 11:06:26;;;;;;;0.30;0.30;;;;;;;;;;5058203;28;20222;-77
2024/03/28 11:08:59;;;;;;;0.30;0.30;;;;;;;;;;5041177;28;20242;-77
2024/03/28 11:11:25;;;;;;;0.20;0.20;;;;;;;;;;5042811;28;20229;-77
2024/03/28 11:13:52;;;;;;;0.30;0.30;;;;;;;;;;5041561;28;20227;-76
2024/03/28 11:16:21;;;;;;;0.30;0.30;;;;;;;;;;5054763;28;20219;-77
2024/03/28 11:18:48;;;;;;;0.20;0.20;;;;;;;;;;5058643;28;20222;-77
2024/03/28 11:21:27;;;;;;;0.30;0.30;;;;;;;;;;5064440;28;20272;-77
2024/03/28 11:23:54;;;;;;;0.30;0.30;;;;;;;;;;5041629;28;20234;-76
2024/03/28 11:26:21;;;;;;;0.30;0.30;;;;;;;;;;5062145;28;20301;-75
2024/03/28 11:28:47;;;;;;;0.30;0.30;;;;;;;;;;5048774;28;20281;-74
2024/03/28 11:31:23;;;;;;;0.30;0.30;;;;;;;;;;5044655;28;20728;-75
2024/03/28 11:34:02;;;;;;;0.30;0.30;;;;;;;;;;5063479;28;20218;-74
2024/03/28 11:36:32;;;;;;;0.30;0.30;;;;;;;;;;5055692;28;20223;-75
2024/03/28 11:38:59;;;;;;;0.30;0.30;;;;;;;;;;5058380;28;20222;-74
2024/03/28 11:41:26;;;;;;;0.30;0.30;;;;;;;;;;5060914;28;20238;-74
2024/03/28 11:43:53;;;;;;;0.30;0.30;;;;;;;;;;5046595;28;20231;-75
2024/03/28 11:46:22;;;;;;;0.20;0.20;;;;;;;;;;5051195;28;20231;-76
2024/03/28 11:48:54;;;;;;;0.30;0.30;;;;;;;;;;5065329;28;20215;-74
2024/03/28 11:51:20;;;;;;;0.27;0.27;;;;;;;;;;5057800;28;20219;-75
2024/03/28 11:53:47;;;;;;;0.33;0.33;;;;;;;;;;5060537;28;20754;-74
2024/03/28 11:56:13;;;;;;;0.30;0.30;;;;;;;;;;5044620;28;20723;-76
2024/03/28 11:58:39;;;;;;;0.30;0.30;;;;;;;;;;5052899;28;20640;-75
2024/03/28 12:01:06;;;;;;;0.30;0.30;;;;;;;;;;5059143;28;20254;-74
2024/03/28 12:03:32;;;;;;;0.30;0.30;;;;;;;;;;5049714;28;20235;-76
2024/03/28 12:05:59;;;;;;;0.20;0.20;;;;;;;;;;5061206;28;20245;-75
2024/03/28 12:08:31;;;;;;;0.30;0.30;;;;;;;;;;5043579;28;20752;-76
2024/03/28 12:11:02;;;;;;;0.37;0.37;;;;;;;;;;5060707;28;20299;-74
2024/03/28 12:13:28;;;;;;;0.40;0.40;;;;;;;;;;5067782;28;20215;-75
2024/03/28 12:15:58;;;;;;;0.20;0.20;;;;;;;;;;5044006;28;20222;-76
2024/03/28 12:18:25;;;;;;;0.30;0.30;;;;;;;;;;5059615;28;20218;-76
2024/03/28 12:20:58;;;;;;;0.30;0.30;;;;;;;;;;5051861;28;20600;-74
2024/03/28 12:23:24;;;;;;;0.30;0.30;;;;;;;;;;5068987;28;20226;-76
2024/03/28 12:25:50;;;;;;;0.20;0.20;;;;;;;;;;5059804;28;20232;-75
2024/03/28 12:28:18;;;;;;;0.30;0.30;;;;;;;;;;5043565;28;20215;-78
2024/03/28 12:30:50;;;;;;;0.30;0.30;;;;;;;;;;5060415;28;20716;-76
2024/03/28 12:33:16;;;;;;;0.30;0.30;;;;;;;;;;5060398;28;20654;-76
2024/03/28 12:35:43;;;;;;;0.27;0.27;;;;;;;;;;5044495;28;20635;-74
2024/03/28 12:38:14;;;;;;;0.40;0.40;;;;;;;;;;5043840;28;20219;-74
2024/03/28 12:40:48;;;;;;;1.00;0.60;;;;;;;;;;5050553;28;20243;-76
2024/03/28 12:43:19;;;;;;;0.33;0.33;;;;;;;;;;5060168;28;20219;-76
2024/03/28 12:45:45;;;;;;;0.93;0.57;;;;;;;;;;5050410;28;20226;-76
2024/03/28 12:48:12;;;;;;;0.30;0.30;;;;;;;;;;5050464;28;20230;-75
2024/03/28 12:50:40;;;;;;;0.30;0.30;;;;;;;;;;5050304;28;20230;-77
2024/03/28 12:53:06;;;;;;;0.30;0.30;;;;;;;;;;5051075;28;20227;-76
2024/03/28 12:55:32;;;;;;;0.27;0.27;;;;;;;;;;5060348;28;20689;-75
2024/03/28 12:57:58;;;;;;;0.30;0.30;;;;;;;;;;5059896;28;20230;-76
2024/03/28 13:00:24;;;;;;;0.30;0.30;;;;;;;;;;5044060;28;20222;-76
2024/03/28 13:02:50;;;;;;;0.30;0.30;;;;;;;;;;5058925;28;20231;-77
2024/03/28 13:05:16;;;;;;;1.20;0.47;;;;;;;;;;5044433;28;20215;-75
2024/03/28 13:07:43;;;;;;;0.20;0.20;;;;;;;;;;5059901;28;20582;-77
2024/03/28 13:10:10;;;;;;;0.33;0.33;;;;;;;;;;5051905;28;20303;-77
2024/03/28 13:12:36;;;;;;;0.77;0.77;;;;;;;;;;5062672;28;20214;-75
2024/03/28 13:15:03;;;;;;;0.70;0.60;;;;;;;;;;5063572;28;20227;-75
2024/03/28 13:17:29;;;;;;;0.30;0.30;;;;;;;;;;5058153;28;20842;-76
2024/03/28 13:19:55;;;;;;;0.30;0.30;;;;;;;;;;5048966;28;20296;-76
2024/03/28 13:22:21;;;;;;;0.30;0.30;;;;;;;;;;5037728;28;20262;-76
2024/03/28 13:24:46;;;;;;;0.30;0.30;;;;;;;;;;5052184;28;20227;-75
2024/03/28 13:27:12;;;;;;;0.30;0.30;;;;;;;;;;5053619;28;20255;-76
2024/03/28 13:29:40;;;;;;;0.30;0.30;;;;;;;;;;5062403;28;20203;-74
2024/03/28 13:32:07;;;;;;;0.40;0.40;;;;;;;;;;5054101;28;20268;-74
2024/03/28 13:34:32;;;;;;;0.32;0.32;;;;;;;;;;5056221;28;20228;-74
2024/03/28 13:36:59;;;;;;;0.30;0.30;;;;;;;;;;5054749;28;20764;-75
2024/03/28 13:39:25;;;;;;;0.35;0.35;;;;;;;;;;5046107;28;20231;-76
2024/03/28 13:41:50;;;;;;;0.40;0.40;;;;;;;;;;5044929;28;20310;-76
2024/03/28 13:44:16;;;;;;;0.30;0.30;;;;;;;;;;5052597;28;20223;-75
2024/03/28 13:46:42;;;;;;;0.30;0.30;;;;;;;;;;5056665;28;20230;-75
2024/03/28 13:49:27;;;;;;;0.30;0.30;;;;;;;;;;5056505;28;20732;-75
2024/03/28 13:51:54;;;;;;;0.30;0.30;;;;;;;;;;5063360;28;20739;-74
2024/03/28 13:54:19;;;;;;;0.30;0.30;;;;;;;;;;5054814;28;20219;-77
2024/03/28 13:56:46;;;;;;;0.30;0.30;;;;;;;;;;5040877;28;20227;-75
2024/03/28 13:59:13;;;;;;;0.30;0.30;;;;;;;;;;5059150;28;20652;-75
2024/03/28 14:01:41;;;;;;;0.40;0.40;;;;;;;;;;5064826;28;20241;-75
2024/03/28 14:04:08;;;;;;;0.30;0.30;;;;;;;;;;5059381;28;20631;-75
2024/03/28 14:06:35;;;;;;;0.30;0.30;;;;;;;;;;5056552;28;20223;-75
2024/03/28 14:09:00;;;;;;;0.30;0.30;;;;;;;;;;5066310;28;20219;-75
2024/03/28 14:11:27;;;;;;;0.30;0.30;;;;;;;;;;5056635;28;20231;-75
2024/03/28 14:13:54;;;;;;;0.30;0.30;;;;;;;;;;5058207;28;20231;-74
2024/03/28 14:16:20;;;;;;;0.30;0.30;;;;;;;;;;5058890;28;20227;-75
2024/03/28 14:18:45;;;;;;;0.38;0.38;;;;;;;;;;5037932;28;21045;-75
2024/03/28 14:21:10;;;;;;;0.30;0.30;;;;;;;;;;5040370;28;20246;-76
2024/03/28 14:23:37;;;;;;;0.30;0.30;;;;;;;;;;5055537;28;20231;-75
2024/03/28 14:26:04;;;;;;;0.57;0.57;;;;;;;;;;5066030;28;20232;-75
2024/03/28 14:28:32;;;;;;;0.30;0.30;;;;;;;;;;5040896;28;20215;-77
2024/03/28 14:31:03;;;;;;;0.30;0.30;;;;;;;;;;5053107;28;20223;-75
2024/03/28 14:33:29;;;;;;;0.30;0.30;;;;;;;;;;5054565;28;20230;-72
2024/03/28 14:36:06;;;;;;;0.30;0.30;;;;;;;;;;5055865;28;20235;-72
2024/03/28 14:38:32;;;;;;;0.38;0.38;;;;;;;;;;5047205;28;20244;-73
2024/03/28 14:41:01;;;;;;;0.30;0.30;;;;;;;;;;5056642;28;20230;-72
2024/03/28 14:43:27;;;;;;;0.30;0.30;;;;;;;;;;5065329;28;20274;-73
2024/03/28 14:45:53;;;;;;;0.30;0.30;;;;;;;;;;5056228;28;20845;-73
2024/03/28 14:48:18;;;;;;;0.40;0.40;;;;;;;;;;5055711;28;20220;-73